Mg Explorer — HPEZ — position and weather

sailwx.info

Track history (hours):
 
Tides and Currents Weather Stations Pressure Air Temp Water Temp Dewpoint Dewpoint Depression Visibility Wind Speed Wind Dir Waves Ship Positions

Mg Explorer

Last reported at 2017-Nov-19 15:45 UTC. Time now 2017-Nov-22 03:57 UTC.
Position N 36°36' E 013°58'.

Length 229 m; draft 7.4 m.

Type: Cargo ship. MMSI: 374832000.

Date/timePositionNaut miles runAvg speedWind from/ knotsBaromVisibWave heightAir tempDewpointWater temp
2017-Nov-19 15:45N 36°36' E 013°58'311.8
2017-Nov-19 15:30N 36°35' E 014°01'611.6
2017-Nov-19 15:00N 36°33' E 014°08'611.4
2017-Nov-19 14:30N 36°31' E 014°15'611.3
2017-Nov-19 14:00N 36°30' E 014°21'611.4
2017-Nov-19 13:30N 36°28' E 014°28'611.4
2017-Nov-19 12:59N 36°27' E 014°35'611.4
2017-Nov-19 12:30N 36°26' E 014°42'  
2017-Nov-16 18:42N 40°54' E 028°48'413.4
2017-Nov-16 18:25N 40°55' E 028°53'612.9
2017-Nov-16 17:59N 40°58' E 028°59'32710.1
2017-Nov-15 09:45N 46°14' E 030°55'311.5
2017-Nov-15 09:30N 46°16' E 030°53'713.1
2017-Nov-15 09:00N 46°23' E 030°55'713.1
2017-Nov-15 08:30N 46°29' E 030°55'5 8.5
2017-Nov-15 07:57N 46°33' E 030°59'  
Track history (hours):
 
Tides and Currents Weather Stations Pressure Air Temp Water Temp Dewpoint Dewpoint Depression Visibility Wind Speed Wind Dir Waves Ship Positions

Mg Explorer

Last reported at 2017-Nov-19 15:45 UTC. Time now 2017-Nov-22 03:57 UTC.
Position N 36°36' E 013°58'.

Length 229 m; draft 7.4 m.

Type: Cargo ship. MMSI: 374832000.

Date/timePositionNaut miles runAvg speedWind from/ knotsBaromVisibWave heightAir tempDewpointWater temp
2017-Nov-19 15:45N 36°36' E 013°58'311.8
2017-Nov-19 15:30N 36°35' E 014°01'611.6
2017-Nov-19 15:00N 36°33' E 014°08'611.4
2017-Nov-19 14:30N 36°31' E 014°15'611.3
2017-Nov-19 14:00N 36°30' E 014°21'611.4
2017-Nov-19 13:30N 36°28' E 014°28'611.4
2017-Nov-19 12:59N 36°27' E 014°35'611.4
2017-Nov-19 12:30N 36°26' E 014°42'  
2017-Nov-16 18:42N 40°54' E 028°48'413.4
2017-Nov-16 18:25N 40°55' E 028°53'612.9
2017-Nov-16 17:59N 40°58' E 028°59'32710.1
2017-Nov-15 09:45N 46°14' E 030°55'311.5
2017-Nov-15 09:30N 46°16' E 030°53'713.1
2017-Nov-15 09:00N 46°23' E 030°55'713.1
2017-Nov-15 08:30N 46°29' E 030°55'5 8.5
2017-Nov-15 07:57N 46°33' E 030°59'  

Dump ship's entire track history